Time;durP1;ratioP1;P1;durP2;ratioP2;P2;SDS_P1;SDS_P2;PMS_P1;PMS_P2;Temp;Humidity;BMP_temperature;BMP_pressure;BME280_temperature;BME280_humidity;BME280_pressure;Samples;Min_cycle;Max_cycle;Signal;HPM_P1;HPM_P2
2023/03/24 00:01:51;;;;;;;44.60;7.13;;;;;;;9.75;100.00;99468.47;5059986;28;20410;-67
2023/03/24 00:04:17;;;;;;;44.03;6.45;;;;;;;9.82;100.00;99491.50;5063861;28;20056;-67
2023/03/24 00:06:43;;;;;;;40.95;6.78;;;;;;;9.81;100.00;99494.44;5060569;28;20039;-67
2023/03/24 00:09:09;;;;;;;49.30;7.57;;;;;;;9.81;100.00;99506.00;5038050;28;20503;-67
2023/03/24 00:11:35;;;;;;;51.50;7.10;;;;;;;9.83;100.00;99498.53;5037764;28;20066;-67
2023/03/24 00:14:01;;;;;;;48.80;6.88;;;;;;;9.79;100.00;99493.81;5021151;28;20036;-68
2023/03/24 00:16:27;;;;;;;48.30;7.13;;;;;;;9.72;100.00;99464.34;5037025;28;20068;-68
2023/03/24 00:18:53;;;;;;;49.05;6.88;;;;;;;9.88;100.00;99485.22;5020447;28;20064;-67
2023/03/24 00:21:23;;;;;;;41.70;6.25;;;;;;;9.80;100.00;99479.34;5036745;28;20032;-68
2023/03/24 00:23:49;;;;;;;45.10;6.30;;;;;;;9.86;100.00;99479.25;5054756;28;20036;-67
2023/03/24 00:26:16;;;;;;;48.13;7.10;;;;;;;9.92;100.00;99480.22;5036380;28;20072;-67
2023/03/24 00:28:44;;;;;;;55.42;6.72;;;;;;;9.92;100.00;99490.16;5054166;28;20032;-67
2023/03/24 00:31:10;;;;;;;40.08;6.25;;;;;;;9.84;100.00;99454.50;5036657;28;20025;-67
2023/03/24 00:33:36;;;;;;;57.15;7.47;;;;;;;9.92;100.00;99472.16;5054534;28;20032;-67
2023/03/24 00:36:04;;;;;;;54.10;7.40;;;;;;;9.88;100.00;99470.97;5036775;28;20025;-67
2023/03/24 00:38:30;;;;;;;48.30;6.35;;;;;;;9.90;100.00;99468.91;5054410;28;20021;-67
2023/03/24 00:40:57;;;;;;;55.20;7.03;;;;;;;9.80;100.00;99471.28;5035581;28;20428;-67
2023/03/24 00:43:23;;;;;;;52.95;6.72;;;;;;;9.84;100.00;99483.22;5019611;28;20083;-67
2023/03/24 00:45:51;;;;;;;50.58;7.63;;;;;;;9.83;100.00;99485.09;5054304;28;20040;-68
2023/03/24 00:48:18;;;;;;;47.80;7.13;;;;;;;9.75;100.00;99493.47;5029652;28;20027;-68
2023/03/24 00:50:46;;;;;;;51.92;7.15;;;;;;;9.72;100.00;99480.47;5055786;28;20028;-67
2023/03/24 00:53:14;;;;;;;44.47;7.13;;;;;;;9.79;100.00;99480.38;5055245;28;20368;-67
2023/03/24 00:55:41;;;;;;;57.25;7.32;;;;;;;9.70;100.00;99487.97;5054890;28;20025;-67
2023/03/24 00:58:06;;;;;;;46.22;7.18;;;;;;;9.80;100.00;99479.34;5042421;28;20028;-68
2023/03/24 01:00:32;;;;;;;46.50;6.88;;;;;;;9.87;100.00;99472.84;5043703;28;20033;-67
2023/03/24 01:02:58;;;;;;;51.90;7.50;;;;;;;9.78;100.00;99468.81;5056908;28;20025;-67
2023/03/24 01:05:29;;;;;;;51.42;6.75;;;;;;;9.83;100.00;99463.63;5018503;28;20407;-66
2023/03/24 01:07:56;;;;;;;53.20;7.32;;;;;;;9.73;100.00;99441.00;5053647;28;20491;-67
2023/03/24 01:10:25;;;;;;;54.40;7.07;;;;;;;9.84;100.00;99451.81;5035828;28;20025;-68
2023/03/24 01:12:53;;;;;;;52.83;7.35;;;;;;;9.82;100.00;99451.19;5053764;28;20075;-67
2023/03/24 01:15:22;;;;;;;52.47;7.97;;;;;;;9.87;100.00;99445.16;5053636;28;20039;-67
2023/03/24 01:17:48;;;;;;;52.55;7.35;;;;;;;9.74;100.00;99418.47;5035552;28;20033;-67
2023/03/24 01:20:14;;;;;;;55.33;8.00;;;;;;;9.87;100.00;99427.19;5002976;28;20025;-67
2023/03/24 01:22:43;;;;;;;47.90;6.93;;;;;;;9.86;100.00;99416.63;5053355;28;20056;-67
2023/03/24 01:25:15;;;;;;;48.88;6.57;;;;;;;9.81;100.00;99414.66;5053450;28;20454;-67
2023/03/24 01:27:42;;;;;;;54.80;6.95;;;;;;;9.79;100.00;99406.00;5053360;28;20086;-67
2023/03/24 01:30:10;;;;;;;56.03;7.93;;;;;;;9.71;100.00;99411.69;5035492;28;20036;-67
2023/03/24 01:32:36;;;;;;;49.28;7.60;;;;;;;9.85;100.00;99426.56;5035344;28;20802;-67
2023/03/24 01:35:01;;;;;;;51.83;7.10;;;;;;;9.85;100.00;99433.81;5035122;28;20036;-67
2023/03/24 01:37:27;;;;;;;62.95;7.85;;;;;;;9.91;100.00;99429.41;5053024;28;20033;-67
2023/03/24 01:39:52;;;;;;;52.38;6.78;;;;;;;9.79;100.00;99406.00;5018083;28;20036;-68
2023/03/24 01:42:21;;;;;;;54.65;7.30;;;;;;;9.79;100.00;99413.22;5052946;28;20032;-67
2023/03/24 01:44:49;;;;;;;55.75;6.85;;;;;;;9.82;100.00;99410.91;5053093;28;20082;-67
2023/03/24 01:47:16;;;;;;;53.33;6.85;;;;;;;9.75;100.00;99406.69;5035081;28;20109;-69
2023/03/24 01:49:55;;;;;;;50.35;6.65;;;;;;;9.74;100.00;99403.19;5034719;28;20025;-67
2023/03/24 01:52:28;;;;;;;61.67;8.05;;;;;;;9.69;100.00;99397.66;5052247;28;20033;-67
2023/03/24 01:55:01;;;;;;;57.47;7.10;;;;;;;9.60;100.00;99389.13;5052757;28;20025;-67
2023/03/24 01:57:32;;;;;;;56.30;6.85;;;;;;;9.66;100.00;99390.06;5052738;28;20021;-68
2023/03/24 02:00:03;;;;;;;59.67;7.53;;;;;;;9.63;100.00;99398.56;5052663;28;20017;-67
2023/03/24 02:02:33;;;;;;;61.67;8.18;;;;;;;9.57;100.00;99384.19;5052356;28;20070;-68
2023/03/24 02:05:03;;;;;;;56.10;8.57;;;;;;;9.68;100.00;99384.47;5034639;28;20029;-67
2023/03/24 02:07:37;;;;;;;62.20;7.68;;;;;;;9.66;100.00;99384.69;5034363;28;20025;-68
2023/03/24 02:10:06;;;;;;;51.10;7.73;;;;;;;9.71;100.00;99376.78;5052159;28;20027;-67
2023/03/24 02:12:32;;;;;;;63.38;9.23;;;;;;;9.59;100.00;99374.03;5052217;28;20025;-67
2023/03/24 02:14:59;;;;;;;77.40;9.00;;;;;;;9.62;100.00;99380.81;5017950;28;20112;-67
2023/03/24 02:17:38;;;;;;;66.22;9.80;;;;;;;9.53;100.00;99355.31;5034101;28;20471;-68
2023/03/24 02:20:10;;;;;;;66.22;8.57;;;;;;;9.67;100.00;99367.53;5034447;28;20040;-67
2023/03/24 02:22:58;;;;;;;60.72;8.55;;;;;;;9.59;100.00;99362.47;5034704;28;20436;-67
2023/03/24 02:25:45;;;;;;;72.22;10.57;;;;;;;9.66;100.00;99352.44;5051710;28;20143;-67
2023/03/24 02:28:16;;;;;;;68.95;8.82;;;;;;;9.69;100.00;99357.38;5052753;28;20072;-67
2023/03/24 02:31:16;;;;;;;68.15;8.45;;;;;;;9.68;100.00;99355.75;5051996;28;20037;-67
2023/03/24 02:33:56;;;;;;;63.33;9.32;;;;;;;9.70;100.00;99342.91;5052267;28;20050;-66
2023/03/24 02:36:58;;;;;;;69.03;8.38;;;;;;;9.66;100.00;99336.34;5034169;28;20413;-67
2023/03/24 02:39:27;;;;;;;78.10;9.70;;;;;;;9.67;100.00;99338.00;5034231;28;20059;-67
2023/03/24 02:42:06;;;;;;;69.07;8.75;;;;;;;9.65;100.00;99329.34;5034332;28;20032;-67
2023/03/24 02:44:47;;;;;;;64.10;8.15;;;;;;;9.64;100.00;99328.53;5052029;28;20125;-67
2023/03/24 02:47:22;;;;;;;63.65;9.00;;;;;;;9.65;100.00;99321.28;5033927;28;20471;-67
2023/03/24 02:50:22;;;;;;;70.50;9.82;;;;;;;9.65;100.00;99313.22;5052069;28;20025;-67
2023/03/24 02:52:59;;;;;;;77.57;9.85;;;;;;;9.63;100.00;99320.69;5052176;28;20075;-67
2023/03/24 02:55:45;;;;;;;70.72;8.55;;;;;;;9.58;100.00;99304.44;5051037;28;20028;-67
2023/03/24 02:58:25;;;;;;;57.47;7.50;;;;;;;9.44;100.00;99289.56;5051982;28;20025;-67
2023/03/24 03:01:04;;;;;;;59.97;8.57;;;;;;;9.54;100.00;99290.66;5034090;28;20028;-67
2023/03/24 03:03:37;;;;;;;56.45;8.50;;;;;;;9.60;100.00;99297.81;5033960;28;20399;-67
2023/03/24 03:06:07;;;;;;;68.45;9.35;;;;;;;9.54;100.00;99292.53;5052052;28;20092;-67
2023/03/24 03:08:35;;;;;;;62.63;8.32;;;;;;;9.52;100.00;99283.88;5052234;28;20066;-68
2023/03/24 03:11:03;;;;;;;48.63;7.90;;;;;;;9.54;100.00;99285.31;5035029;28;20028;-67
2023/03/24 03:13:51;;;;;;;54.88;7.22;;;;;;;9.53;100.00;99282.81;5052574;28;20028;-67
2023/03/24 03:16:37;;;;;;;56.45;8.20;;;;;;;9.44;100.00;99262.72;5034043;28;20025;-67
2023/03/24 03:19:09;;;;;;;48.47;7.55;;;;;;;9.39;100.00;99233.88;5051702;28;20029;-68
2023/03/24 03:21:40;;;;;;;55.83;7.93;;;;;;;9.52;100.00;99276.66;5033977;28;20502;-68
2023/03/24 03:24:40;;;;;;;47.30;6.80;;;;;;;9.53;100.00;99267.53;5034008;28;20037;-67
2023/03/24 03:27:18;;;;;;;53.70;8.40;;;;;;;9.56;100.00;99260.88;5033686;28;20044;-68
2023/03/24 03:29:59;;;;;;;52.40;7.15;;;;;;;9.49;100.00;99247.56;5055025;28;20025;-68
2023/03/24 03:32:30;;;;;;;62.10;7.18;;;;;;;9.51;100.00;99248.16;5035498;28;20028;-67
2023/03/24 03:35:18;;;;;;;47.78;7.03;;;;;;;9.53;100.00;99240.69;5051877;28;20033;-68
2023/03/24 03:38:05;;;;;;;54.03;6.88;;;;;;;9.49;100.00;99244.88;5037129;28;20086;-67
2023/03/24 03:40:43;;;;;;;48.47;7.10;;;;;;;9.50;100.00;99233.09;5037196;28;20025;-67
2023/03/24 03:43:08;;;;;;;57.25;6.90;;;;;;;9.54;100.00;99236.16;5055477;28;20032;-67
2023/03/24 03:45:34;;;;;;;47.17;6.85;;;;;;;9.57;100.00;99231.13;5054392;28;20025;-67
2023/03/24 03:48:01;;;;;;;45.78;6.95;;;;;;;9.41;100.00;99205.78;5020131;28;20029;-67
2023/03/24 03:50:27;;;;;;;62.42;7.25;;;;;;;9.58;100.00;99231.94;5037760;28;20025;-67
2023/03/24 03:52:53;;;;;;;54.95;7.35;;;;;;;9.49;100.00;99212.66;5055161;28;20514;-67
2023/03/24 03:55:18;;;;;;;62.83;7.28;;;;;;;9.53;100.00;99223.75;5020456;28;20055;-67
2023/03/24 03:57:44;;;;;;;57.70;7.43;;;;;;;9.50;100.00;99221.53;5035875;28;20021;-68
2023/03/24 04:00:18;;;;;;;53.45;7.43;;;;;;;9.47;100.00;99211.25;5055001;28;20025;-67
2023/03/24 04:02:53;;;;;;;48.33;6.38;;;;;;;9.53;100.00;99207.66;5037209;28;20171;-67
2023/03/24 04:05:27;;;;;;;55.47;7.35;;;;;;;9.42;100.00;99193.16;5054508;28;20288;-67
2023/03/24 04:08:07;;;;;;;47.63;6.55;;;;;;;9.44;100.00;99200.97;5054829;28;20801;-67
2023/03/24 04:10:52;;;;;;;51.25;6.55;;;;;;;9.41;100.00;99194.22;5053724;28;20029;-68
2023/03/24 04:13:44;;;;;;;53.13;6.85;;;;;;;9.41;100.00;99188.84;5026351;28;20044;-67
2023/03/24 04:16:33;;;;;;;43.20;6.82;;;;;;;9.33;100.00;99194.53;5036825;28;20422;-67
2023/03/24 04:19:11;;;;;;;51.35;7.10;;;;;;;9.35;100.00;99190.59;5048043;28;20037;-67
2023/03/24 04:21:42;;;;;;;51.05;7.15;;;;;;;9.32;100.00;99177.63;5054381;28;20033;-67
2023/03/24 04:24:26;;;;;;;56.17;6.68;;;;;;;9.37;100.00;99183.13;5036615;28;20029;-68
2023/03/24 04:27:05;;;;;;;54.33;7.85;;;;;;;9.31;100.00;99170.63;5036663;28;20078;-66
2023/03/24 04:29:51;;;;;;;56.00;7.03;;;;;;;9.30;100.00;99168.16;5036315;28;20450;-67
2023/03/24 04:32:52;;;;;;;56.47;7.35;;;;;;;9.28;100.00;99163.03;5036148;28;20037;-67
2023/03/24 04:35:34;;;;;;;49.25;6.88;;;;;;;9.27;100.00;99149.81;5021371;28;20037;-67
2023/03/24 04:38:06;;;;;;;50.25;7.45;;;;;;;9.31;100.00;99154.53;5057368;28;20032;-67
2023/03/24 04:40:33;;;;;;;48.60;6.40;;;;;;;9.26;100.00;99138.28;5055878;28;20032;-67
2023/03/24 04:43:03;;;;;;;55.47;7.60;;;;;;;9.33;100.00;99144.34;5069416;28;20024;-67
2023/03/24 04:45:32;;;;;;;56.45;7.28;;;;;;;9.17;100.00;99121.72;5076223;28;20025;-68
2023/03/24 04:48:01;;;;;;;57.97;7.22;;;;;;;9.26;100.00;99129.41;5073744;28;20033;-67
2023/03/24 04:50:35;;;;;;;54.67;7.95;;;;;;;9.33;100.00;99125.56;5074198;28;20070;-67
2023/03/24 04:53:01;;;;;;;48.67;7.15;;;;;;;9.40;100.00;99128.13;5055947;28;20052;-66
2023/03/24 04:55:48;;;;;;;53.50;7.30;;;;;;;9.42;100.00;99123.34;5073512;28;20395;-67
2023/03/24 04:58:13;;;;;;;46.72;7.68;;;;;;;9.27;100.00;99097.00;5074379;28;20434;-67
2023/03/24 05:00:40;;;;;;;53.38;6.90;;;;;;;9.45;100.00;99111.34;5055771;28;20024;-66
2023/03/24 05:03:05;;;;;;;44.47;6.75;;;;;;;9.43;100.00;99105.38;5073339;28;20036;-67
2023/03/24 05:05:31;;;;;;;49.58;8.00;;;;;;;9.38;100.00;99098.03;5056006;28;20101;-67
2023/03/24 05:07:57;;;;;;;50.83;7.05;;;;;;;9.28;100.00;99066.41;5055657;28;20020;-67
2023/03/24 05:10:23;;;;;;;43.42;6.95;;;;;;;9.49;100.00;99093.72;5054317;28;20493;-67
2023/03/24 05:12:49;;;;;;;47.10;7.38;;;;;;;9.42;100.00;99066.97;5073305;28;20085;-67
2023/03/24 05:15:14;;;;;;;57.00;7.68;;;;;;;9.47;100.00;99074.31;5073644;28;20082;-68
2023/03/24 05:17:40;;;;;;;52.60;8.05;;;;;;;9.45;100.00;99081.81;5055895;28;20032;-68
2023/03/24 05:20:09;;;;;;;48.72;8.10;;;;;;;9.46;100.00;99080.75;5038978;28;20371;-68
2023/03/24 05:22:36;;;;;;;51.72;8.63;;;;;;;9.47;100.00;99066.28;5054968;28;20379;-67
2023/03/24 05:25:02;;;;;;;48.65;8.75;;;;;;;9.46;100.00;99065.47;5052128;28;20134;-68
2023/03/24 05:27:27;;;;;;;48.67;8.77;;;;;;;9.47;100.00;99061.75;5051756;28;20033;-69
2023/03/24 05:29:53;;;;;;;52.88;9.20;;;;;;;9.45;100.00;99057.66;5051675;28;20029;-68
2023/03/24 05:32:18;;;;;;;53.35;8.50;;;;;;;9.45;100.00;99058.47;5052149;28;20048;-69
2023/03/24 05:34:44;;;;;;;45.10;9.20;;;;;;;9.46;100.00;99051.22;5051379;28;20043;-69
2023/03/24 05:37:11;;;;;;;52.53;9.35;;;;;;;9.45;100.00;99049.59;5051822;28;20033;-68
2023/03/24 05:39:37;;;;;;;42.72;8.80;;;;;;;9.40;100.00;99039.53;5051613;28;20029;-68
2023/03/24 05:42:03;;;;;;;54.35;9.35;;;;;;;9.29;100.00;99017.03;5053029;28;20345;-68
2023/03/24 05:44:28;;;;;;;52.10;9.85;;;;;;;9.37;100.00;99019.38;5052835;28;20032;-67
2023/03/24 05:46:53;;;;;;;52.38;10.88;;;;;;;9.47;100.00;99028.69;5071917;28;20033;-67
2023/03/24 05:49:19;;;;;;;50.38;11.10;;;;;;;9.49;100.00;99019.34;5053931;28;20033;-67
2023/03/24 05:51:44;;;;;;;50.83;10.88;;;;;;;9.56;100.00;99013.84;5032668;28;20463;-68
2023/03/24 05:54:10;;;;;;;47.35;11.65;;;;;;;9.54;100.00;99005.22;5050029;28;20390;-67
2023/03/24 05:56:35;;;;;;;53.03;13.73;;;;;;;9.61;100.00;98998.69;5049002;28;20128;-67
2023/03/24 05:59:00;;;;;;;46.60;13.20;;;;;;;9.63;100.00;98995.72;5049483;28;20035;-68
2023/03/24 06:01:27;;;;;;;55.10;14.55;;;;;;;9.60;100.00;99002.41;5050662;28;20028;-68
2023/03/24 06:03:53;;;;;;;55.13;14.73;;;;;;;9.64;100.00;98997.38;5051107;28;20541;-67
2023/03/24 06:06:18;;;;;;;52.58;14.88;;;;;;;9.69;100.00;98993.97;5034162;28;20132;-67
2023/03/24 06:08:44;;;;;;;55.72;15.02;;;;;;;9.73;100.00;98995.94;5053118;28;20037;-68
2023/03/24 06:11:10;;;;;;;52.55;14.85;;;;;;;9.60;100.00;98975.56;5048922;28;20067;-68
2023/03/24 06:13:36;;;;;;;57.38;15.77;;;;;;;9.66;100.00;98976.47;5023063;28;20029;-66
2023/03/24 06:16:01;;;;;;;49.65;14.77;;;;;;;9.70;100.00;98985.69;5057646;28;20032;-65
2023/03/24 06:18:29;;;;;;;45.85;15.60;;;;;;;9.72;100.00;98972.84;5056230;28;20033;-66
2023/03/24 06:20:55;;;;;;;55.83;16.13;;;;;;;9.62;100.00;98964.56;5056841;28;20032;-66
2023/03/24 06:23:26;;;;;;;46.33;15.70;;;;;;;9.67;100.00;98956.63;5053107;28;20041;-67
2023/03/24 06:25:53;;;;;;;50.88;15.95;;;;;;;9.77;100.00;98966.75;5039145;28;20077;-66
2023/03/24 06:28:21;;;;;;;52.47;15.95;;;;;;;9.76;100.00;98957.06;5056455;28;20049;-68
2023/03/24 06:30:47;;;;;;;47.78;15.98;;;;;;;9.62;100.00;98948.47;5058514;28;20025;-67
2023/03/24 06:33:13;;;;;;;46.17;15.60;;;;;;;9.78;100.00;98949.59;5057312;28;20032;-67
2023/03/24 06:35:39;;;;;;;52.50;16.65;;;;;;;9.76;100.00;98949.81;5057543;28;20029;-68
2023/03/24 06:38:05;;;;;;;41.95;14.57;;;;;;;9.71;100.00;98943.53;5039245;28;20036;-68
2023/03/24 06:40:32;;;;;;;43.38;15.52;;;;;;;9.78;100.00;98939.66;5054737;28;20100;-68
2023/03/24 06:42:58;;;;;;;36.00;14.85;;;;;;;9.81;100.00;98941.88;5040690;28;20044;-67
2023/03/24 06:45:24;;;;;;;42.15;14.48;;;;;;;9.78;100.00;98936.16;5038291;28;20063;-68
2023/03/24 06:47:56;;;;;;;33.65;13.55;;;;;;;9.82;100.00;98923.88;5036421;28;20049;-67
2023/03/24 06:50:25;;;;;;;34.67;13.73;;;;;;;9.73;100.00;98909.19;5037493;28;20030;-68
2023/03/24 06:52:52;;;;;;;30.58;13.40;;;;;;;9.80;100.00;98912.53;5038599;28;20079;-67
2023/03/24 06:55:18;;;;;;;31.15;12.75;;;;;;;9.80;100.00;98896.41;5036712;28;20120;-67
2023/03/24 06:57:43;;;;;;;31.27;11.90;;;;;;;9.84;100.00;98911.84;5037055;28;20100;-67
2023/03/24 07:00:10;;;;;;;33.50;11.73;;;;;;;9.87;100.00;98897.94;5036446;28;20026;-66
2023/03/24 07:02:36;;;;;;;28.33;12.30;;;;;;;9.80;100.00;98894.56;5037540;28;20037;-66
2023/03/24 07:05:05;;;;;;;27.02;11.80;;;;;;;9.83;100.00;98886.03;5039746;28;20404;-66
2023/03/24 07:07:32;;;;;;;28.05;12.27;;;;;;;9.90;100.00;98872.44;5041008;28;20022;-66
2023/03/24 07:09:57;;;;;;;31.88;12.88;;;;;;;9.89;100.00;98874.31;5038110;28;20129;-66
2023/03/24 07:12:23;;;;;;;31.52;12.90;;;;;;;9.92;100.00;98864.13;5042618;28;20056;-66
2023/03/24 07:14:48;;;;;;;36.17;13.60;;;;;;;9.92;100.00;98851.50;5040227;28;20040;-66
2023/03/24 07:17:14;;;;;;;30.50;13.38;;;;;;;10.01;100.00;98860.00;5038687;28;20427;-66
2023/03/24 07:19:39;;;;;;;28.45;13.23;;;;;;;9.95;100.00;98824.16;5037745;28;20026;-67
2023/03/24 07:22:07;;;;;;;35.78;13.63;;;;;;;10.14;100.00;98843.56;5038830;28;20041;-67
2023/03/24 07:24:34;;;;;;;30.63;13.63;;;;;;;10.23;100.00;98831.34;5042943;28;20133;-67
2023/03/24 07:27:00;;;;;;;30.95;12.98;;;;;;;10.19;100.00;98827.50;5041804;28;20055;-69
2023/03/24 07:29:25;;;;;;;34.92;14.23;;;;;;;10.28;100.00;98820.69;5058163;28;20033;-67
2023/03/24 07:31:53;;;;;;;29.48;13.23;;;;;;;10.31;100.00;98801.38;5042651;28;20522;-68
2023/03/24 07:34:19;;;;;;;27.77;13.07;;;;;;;10.38;100.00;98806.59;5061077;28;20083;-67
2023/03/24 07:36:45;;;;;;;28.83;13.43;;;;;;;10.35;100.00;98783.69;5061005;28;20081;-66
2023/03/24 07:39:12;;;;;;;28.70;13.63;;;;;;;10.48;100.00;98787.09;5043018;28;20307;-68
2023/03/24 07:41:37;;;;;;;30.77;13.77;;;;;;;10.50;100.00;98763.47;5058567;28;20032;-67
2023/03/24 07:44:03;;;;;;;32.72;13.23;;;;;;;10.58;100.00;98754.97;5037335;28;20028;-67
2023/03/24 07:46:29;;;;;;;31.52;13.55;;;;;;;10.76;100.00;98749.28;5039172;28;20387;-67
2023/03/24 07:48:54;;;;;;;28.42;12.80;;;;;;;10.86;100.00;98742.38;5041645;28;20492;-68
2023/03/24 07:51:20;;;;;;;23.20;12.80;;;;;;;10.76;100.00;98719.69;5059480;28;20551;-66
2023/03/24 07:53:46;;;;;;;28.35;13.52;;;;;;;10.93;100.00;98732.25;5041325;28;20056;-67
2023/03/24 07:56:12;;;;;;;26.05;12.43;;;;;;;11.04;100.00;98739.38;5042161;28;20052;-66
2023/03/24 07:58:38;;;;;;;24.70;12.38;;;;;;;11.08;100.00;98735.09;5059537;28;20029;-65
2023/03/24 08:01:08;;;;;;;17.50;11.05;;;;;;;11.14;100.00;98728.72;5060730;28;20090;-66
2023/03/24 08:03:35;;;;;;;18.98;11.25;;;;;;;11.09;100.00;98730.53;5060688;28;20032;-69
2023/03/24 08:06:00;;;;;;;16.42;9.45;;;;;;;11.04;100.00;98702.50;5059378;28;20025;-67
2023/03/24 08:08:26;;;;;;;15.60;8.75;;;;;;;10.80;100.00;98706.56;5041626;28;20544;-66
2023/03/24 08:10:52;;;;;;;13.85;8.30;;;;;;;10.81;100.00;98700.09;5040588;28;20036;-66
2023/03/24 08:13:17;;;;;;;12.15;6.88;;;;;;;10.68;100.00;98689.72;5058674;28;20060;-65
2023/03/24 08:15:42;;;;;;;8.23;5.25;;;;;;;10.55;100.00;98683.66;5042212;28;20036;-65
2023/03/24 08:18:08;;;;;;;13.63;5.63;;;;;;;10.58;100.00;98683.16;5060516;28;20763;-64
2023/03/24 08:20:33;;;;;;;10.07;5.75;;;;;;;10.47;100.00;98664.50;5060017;28;20369;-67
2023/03/24 08:22:59;;;;;;;9.10;5.53;;;;;;;10.68;100.00;98660.16;5058935;28;20198;-66
2023/03/24 08:25:26;;;;;;;9.05;6.10;;;;;;;10.69;100.00;98648.31;5041672;28;20122;-66
2023/03/24 08:27:53;;;;;;;11.05;6.63;;;;;;;10.71;100.00;98646.19;5043543;28;20411;-66
2023/03/24 08:30:21;;;;;;;10.00;6.53;;;;;;;10.79;100.00;98633.13;5060109;28;20083;-66
2023/03/24 08:32:50;;;;;;;9.75;6.88;;;;;;;10.61;100.00;98629.94;5041416;28;20035;-67
2023/03/24 08:35:18;;;;;;;11.20;7.72;;;;;;;10.61;100.00;98624.56;5058721;28;20036;-67
2023/03/24 08:37:44;;;;;;;12.27;7.57;;;;;;;10.70;100.00;98626.56;5059921;28;20391;-67
2023/03/24 08:40:13;;;;;;;10.77;7.72;;;;;;;10.73;100.00;98611.78;5041767;28;20020;-67
2023/03/24 08:42:42;;;;;;;11.98;8.18;;;;;;;10.73;100.00;98604.53;5059836;28;20025;-66
2023/03/24 08:45:10;;;;;;;11.07;7.22;;;;;;;10.51;100.00;98601.06;5042299;28;20021;-67
2023/03/24 08:47:35;;;;;;;8.02;6.55;;;;;;;10.38;100.00;98593.41;5042794;28;20025;-66
2023/03/24 08:50:01;;;;;;;8.40;5.28;;;;;;;10.38;100.00;98577.25;5043518;28;20040;-66
2023/03/24 08:52:26;;;;;;;7.63;5.05;;;;;;;10.53;100.00;98566.69;5042754;28;20037;-66
2023/03/24 08:54:52;;;;;;;6.68;4.90;;;;;;;10.44;100.00;98552.06;5055068;28;20032;-66
2023/03/24 08:57:17;;;;;;;9.73;5.20;;;;;;;10.67;100.00;98561.69;5040993;28;20061;-66
2023/03/24 08:59:43;;;;;;;5.40;4.47;;;;;;;10.94;100.00;98556.28;5060114;28;20021;-66
2023/03/24 09:02:10;;;;;;;6.20;4.30;;;;;;;10.99;100.00;98545.56;5024647;28;20090;-65
2023/03/24 09:04:36;;;;;;;5.00;3.30;;;;;;;10.83;100.00;98539.25;5057542;28;20027;-66
2023/03/24 09:07:02;;;;;;;3.60;2.45;;;;;;;10.45;100.00;98518.72;5039662;28;20060;-66
2023/03/24 09:09:28;;;;;;;3.38;2.67;;;;;;;10.54;100.00;98519.91;5009116;28;20033;-66
2023/03/24 09:11:54;;;;;;;4.57;2.70;;;;;;;11.05;100.00;98514.94;5059911;28;20029;-67
2023/03/24 09:14:21;;;;;;;1.83;1.65;;;;;;;11.14;100.00;98513.38;5059069;28;20035;-67
2023/03/24 09:16:48;;;;;;;3.63;1.48;;;;;;;11.18;100.00;98503.72;5058544;28;20435;-67
2023/03/24 09:19:13;;;;;;;1.55;1.30;;;;;;;11.22;100.00;98499.41;5059004;28;20025;-66
2023/03/24 09:21:43;;;;;;;2.40;1.42;;;;;;;11.16;100.00;98481.66;5058990;28;20083;-67
2023/03/24 09:24:08;;;;;;;2.40;1.50;;;;;;;11.35;100.00;98486.59;5041162;28;20051;-66
2023/03/24 09:26:34;;;;;;;9.50;4.05;;;;;;;11.19;100.00;98475.75;5059679;28;20032;-67
2023/03/24 09:28:59;;;;;;;9.43;5.18;;;;;;;11.22;100.00;98474.38;5041812;28;20032;-66
2023/03/24 09:31:25;;;;;;;9.23;4.95;;;;;;;11.17;100.00;98463.59;5058645;28;20033;-67
2023/03/24 09:33:51;;;;;;;13.60;6.82;;;;;;;11.22;100.00;98461.72;5041507;28;20040;-67
2023/03/24 09:36:17;;;;;;;18.38;8.23;;;;;;;11.09;100.00;98464.88;5040585;28;20090;-67
2023/03/24 09:38:42;;;;;;;18.85;8.80;;;;;;;11.12;100.00;98458.97;5040421;28;20024;-67
2023/03/24 09:41:17;;;;;;;24.90;9.90;;;;;;;10.90;100.00;98434.13;5058071;28;20078;-67
2023/03/24 09:43:45;;;;;;;;;;;;;;;10.98;100.00;98439.81;5059228;28;20025;-67
2023/03/24 09:46:14;;;;;;;22.30;10.52;;;;;;;10.92;100.00;98440.84;5039294;28;19909;-67
2023/03/24 09:48:47;;;;;;;27.13;10.45;;;;;;;10.88;100.00;98433.56;5057259;28;20055;-67
2023/03/24 09:51:31;;;;;;;23.88;10.32;;;;;;;10.79;100.00;98436.75;5033675;28;20165;-67
2023/03/24 09:54:31;;;;;;;18.08;9.35;;;;;;;10.78;100.00;98431.59;5055191;28;20056;-66
2023/03/24 09:56:57;;;;;;;16.65;8.02;;;;;;;10.73;100.00;98402.00;5036222;28;20033;-67
2023/03/24 09:59:37;;;;;;;15.57;7.22;;;;;;;10.90;100.00;98413.41;5020642;28;20025;-66
2023/03/24 10:02:11;;;;;;;13.02;6.40;;;;;;;10.84;100.00;98409.03;5020839;28;20473;-67
2023/03/24 10:04:36;;;;;;;13.48;5.80;;;;;;;10.89;100.00;98403.69;5038966;28;20029;-66
2023/03/24 10:07:16;;;;;;;8.60;4.88;;;;;;;10.68;100.00;98392.00;5039025;28;20120;-67
2023/03/24 10:09:45;;;;;;;9.88;5.00;;;;;;;10.67;100.00;98374.25;5040588;28;20118;-67
2023/03/24 10:12:27;;;;;;;9.98;4.80;;;;;;;10.34;100.00;98311.66;5043722;28;20029;-71
2023/03/24 10:15:08;;;;;;;10.57;6.18;;;;;;;10.89;100.00;98386.72;5043048;28;20080;-66
2023/03/24 10:18:05;;;;;;;21.10;7.63;;;;;;;10.85;100.00;98391.03;5021916;28;20036;-66
2023/03/24 10:20:36;;;;;;;26.40;9.45;;;;;;;10.84;100.00;98384.03;5021475;28;20041;-68
2023/03/24 10:23:32;;;;;;;21.85;10.05;;;;;;;11.00;100.00;98388.44;5026720;28;20428;-67
2023/03/24 10:25:57;;;;;;;20.02;9.38;;;;;;;10.98;100.00;98385.19;5052794;28;20041;-69
2023/03/24 10:28:32;;;;;;;26.90;10.25;;;;;;;10.98;100.00;98385.19;5055566;28;20075;-69
2023/03/24 10:31:01;;;;;;;23.27;10.27;;;;;;;11.02;100.00;98375.50;5044013;28;20028;-65
2023/03/24 10:33:28;;;;;;;27.50;10.27;;;;;;;10.95;100.00;98374.94;5044516;28;20378;-68
2023/03/24 10:36:02;;;;;;;30.23;9.80;;;;;;;10.84;100.00;98374.06;5025534;28;20040;-67
2023/03/24 10:38:28;;;;;;;28.85;9.80;;;;;;;10.86;100.00;98371.09;5037001;28;20124;-67
2023/03/24 10:40:54;;;;;;;27.58;9.98;;;;;;;11.03;100.00;98363.69;5015312;28;20045;-66
2023/03/24 10:43:22;;;;;;;24.10;9.80;;;;;;;10.87;100.00;98370.06;5058792;28;20037;-65
2023/03/24 10:45:51;;;;;;;32.53;9.98;;;;;;;10.87;100.00;98365.47;5039638;28;20024;-66
2023/03/24 10:48:38;;;;;;;27.35;10.05;;;;;;;10.91;100.00;98368.47;5041051;28;20047;-66
2023/03/24 10:51:04;;;;;;;30.75;10.07;;;;;;;10.62;100.00;98350.00;5058868;28;20032;-66
2023/03/24 10:53:30;;;;;;;30.48;10.43;;;;;;;10.90;100.00;98367.66;5039709;28;20037;-66
2023/03/24 10:55:55;;;;;;;37.03;12.88;;;;;;;11.10;100.00;98361.56;5038307;28;20036;-67
2023/03/24 10:58:28;;;;;;;40.05;13.82;;;;;;;11.24;100.00;98365.38;5038635;28;20037;-66
2023/03/24 11:00:54;;;;;;;27.13;11.63;;;;;;;11.11;100.00;98341.66;5057163;28;20024;-67
2023/03/24 11:03:28;;;;;;;32.83;10.68;;;;;;;11.33;100.00;98363.00;5047095;28;20036;-67
2023/03/24 11:06:02;;;;;;;25.80;10.50;;;;;;;11.33;100.00;98378.34;5057339;28;20036;-68
2023/03/24 11:08:30;;;;;;;27.77;10.07;;;;;;;11.40;100.00;98365.47;5060194;28;20033;-68
2023/03/24 11:10:57;;;;;;;29.77;10.75;;;;;;;11.51;100.00;98356.31;5059348;28;20040;-66
2023/03/24 11:13:22;;;;;;;30.35;9.15;;;;;;;11.88;100.00;98372.31;5059272;28;20036;-67
2023/03/24 11:16:10;;;;;;;24.15;7.40;;;;;;;12.02;100.00;98388.81;5055781;28;20140;-68
2023/03/24 11:18:37;;;;;;;19.52;5.85;;;;;;;11.98;100.00;98372.34;5058383;28;20025;-68
2023/03/24 11:21:04;;;;;;;20.50;5.50;;;;;;;11.94;100.00;98373.94;5056972;28;20040;-67
2023/03/24 11:23:36;;;;;;;15.90;5.50;;;;;;;12.15;100.00;98382.06;5057305;28;20029;-68
2023/03/24 11:26:12;;;;;;;20.38;4.28;;;;;;;12.03;100.00;98395.81;5059735;28;20075;-67
2023/03/24 11:28:46;;;;;;;18.45;4.38;;;;;;;11.91;100.00;98390.66;5058683;28;20498;-68
2023/03/24 11:31:23;;;;;;;24.52;4.13;;;;;;;12.01;100.00;98402.53;5058553;28;20088;-67
2023/03/24 11:34:01;;;;;;;26.55;3.88;;;;;;;11.83;100.00;98390.34;5056576;28;20039;-67
2023/03/24 11:36:30;;;;;;;13.85;2.58;;;;;;;11.86;100.00;98400.63;5054859;28;20039;-68